createdAt,value
2022-12-09T00:00:53.617Z,15.43
2022-12-09T00:03:23.671Z,18.88
2022-12-09T00:05:50.865Z,15.52
2022-12-09T00:08:17.626Z,18.70
2022-12-09T00:10:45.018Z,16.20
2022-12-09T00:13:11.444Z,18.95
2022-12-09T00:15:42.576Z,17.23
2022-12-09T00:18:09.373Z,19.67
2022-12-09T00:20:35.814Z,15.05
2022-12-09T00:23:02.352Z,19.33
2022-12-09T00:25:28.762Z,15.60
2022-12-09T00:27:55.194Z,13.23
2022-12-09T00:30:21.595Z,13.75
2022-12-09T00:32:49.297Z,17.60
2022-12-09T00:35:15.817Z,17.90
2022-12-09T00:37:42.213Z,15.68
2022-12-09T00:40:09.455Z,17.73
2022-12-09T00:42:36.705Z,15.38
2022-12-09T00:45:03.178Z,17.70
2022-12-09T00:47:29.748Z,18.38
2022-12-09T00:49:56.326Z,16.40
2022-12-09T00:52:22.711Z,16.75
2022-12-09T00:54:49.332Z,15.00
2022-12-09T00:57:15.814Z,18.17
2022-12-09T00:59:42.379Z,15.75
2022-12-09T01:02:09.024Z,16.48
2022-12-09T01:04:35.925Z,17.05
2022-12-09T01:07:02.577Z,14.20
2022-12-09T01:09:29.057Z,13.63
2022-12-09T01:11:55.773Z,15.43
2022-12-09T01:14:22.186Z,16.73
2022-12-09T01:16:48.731Z,12.52
2022-12-09T01:19:16.185Z,16.85
2022-12-09T01:21:42.709Z,14.57
2022-12-09T01:24:10.245Z,16.95
2022-12-09T01:26:37.671Z,17.90
2022-12-09T01:29:04.279Z,16.40
2022-12-09T01:31:30.830Z,19.27
2022-12-09T01:33:57.523Z,14.45
2022-12-09T01:36:26.857Z,16.55
2022-12-09T01:38:53.788Z,16.35
2022-12-09T01:41:21.996Z,14.10
2022-12-09T01:44:07.022Z,17.52
2022-12-09T01:46:33.591Z,16.50
2022-12-09T01:49:00.551Z,19.40
2022-12-09T01:51:27.326Z,16.98
2022-12-09T01:53:55.961Z,15.45
2022-12-09T01:56:25.093Z,15.93
2022-12-09T01:58:52.834Z,13.93
2022-12-09T02:01:19.468Z,14.95
2022-12-09T02:03:46.747Z,12.50
2022-12-09T02:06:14.164Z,14.25
2022-12-09T02:08:42.334Z,13.35
2022-12-09T02:11:09.904Z,13.93
2022-12-09T02:13:41.947Z,15.23
2022-12-09T02:16:13.576Z,13.98
2022-12-09T02:18:43.717Z,15.43
2022-12-09T02:21:25.662Z,15.55
2022-12-09T02:24:13.588Z,17.45
2022-12-09T02:26:45.287Z,17.30
2022-12-09T02:29:24.890Z,16.17
2022-12-09T02:32:00.640Z,18.85
2022-12-09T02:34:30.196Z,20.50
2022-12-09T02:36:59.727Z,21.00
2022-12-09T02:39:30.528Z,17.40
2022-12-09T02:41:58.376Z,19.02
2022-12-09T02:44:25.721Z,18.55
2022-12-09T02:46:54.601Z,18.35
2022-12-09T02:49:24.063Z,14.80
2022-12-09T02:51:51.497Z,15.40
2022-12-09T02:54:19.540Z,18.23
2022-12-09T02:56:51.314Z,15.75
2022-12-09T02:59:18.058Z,16.15
2022-12-09T03:01:47.760Z,18.13
2022-12-09T03:04:18.233Z,18.40
2022-12-09T03:06:49.224Z,19.20
2022-12-09T03:09:36.016Z,15.38
2022-12-09T03:12:06.378Z,17.52
2022-12-09T03:14:41.088Z,16.65
2022-12-09T03:17:18.059Z,14.25
2022-12-09T03:19:46.661Z,16.05
2022-12-09T03:22:15.355Z,15.70
2022-12-09T03:24:49.759Z,16.70
2022-12-09T03:27:19.352Z,17.33
2022-12-09T03:29:47.068Z,20.33
2022-12-09T03:32:15.649Z,14.43
2022-12-09T03:34:44.886Z,19.52
2022-12-09T03:37:12.164Z,18.58
2022-12-09T03:39:40.107Z,14.90
2022-12-09T03:42:10.285Z,15.73
2022-12-09T03:44:43.876Z,20.05
2022-12-09T03:47:10.749Z,19.60
2022-12-09T03:49:38.360Z,17.70
2022-12-09T03:52:16.967Z,19.88
2022-12-09T03:54:45.977Z,15.90
2022-12-09T03:57:18.518Z,19.80
2022-12-09T03:59:52.746Z,15.27
2022-12-09T04:02:19.862Z,17.98
2022-12-09T04:04:46.689Z,17.10
2022-12-09T04:07:13.430Z,17.48
2022-12-09T04:09:41.333Z,17.40
2022-12-09T04:12:08.214Z,17.52
2022-12-09T04:14:34.638Z,30.98
2022-12-09T04:17:01.226Z,24.80
2022-12-09T04:19:27.843Z,25.63
2022-12-09T04:21:54.371Z,21.55
2022-12-09T04:24:20.916Z,19.45
2022-12-09T04:26:47.461Z,15.77
2022-12-09T04:29:13.918Z,19.38
2022-12-09T04:31:40.567Z,18.30
2022-12-09T04:34:09.697Z,19.48
2022-12-09T04:36:36.588Z,17.33
2022-12-09T04:39:03.260Z,17.70
2022-12-09T04:41:29.687Z,18.50
2022-12-09T04:43:56.144Z,18.42
2022-12-09T04:46:22.651Z,17.67
2022-12-09T04:48:49.409Z,18.08
2022-12-09T04:51:16.357Z,20.40
2022-12-09T04:53:43.424Z,15.68
2022-12-09T04:56:20.644Z,14.93
2022-12-09T04:58:47.856Z,17.52
2022-12-09T05:01:18.175Z,18.98
2022-12-09T05:03:48.117Z,20.00
2022-12-09T05:06:15.037Z,19.17
2022-12-09T05:08:42.578Z,18.80
2022-12-09T05:11:10.018Z,17.63
2022-12-09T05:13:36.588Z,19.25
2022-12-09T05:16:07.811Z,17.65
2022-12-09T05:21:08.374Z,18.00
2022-12-09T05:23:35.116Z,15.90
2022-12-09T05:26:05.784Z,16.65
2022-12-09T05:28:33.455Z,19.45
2022-12-09T05:31:01.661Z,18.45
2022-12-09T05:33:28.851Z,20.13
2022-12-09T05:35:56.188Z,19.80
2022-12-09T05:38:23.151Z,18.35
2022-12-09T05:40:49.819Z,15.32
2022-12-09T05:43:16.714Z,19.80
2022-12-09T05:45:43.938Z,18.48
2022-12-09T05:48:10.505Z,20.67
2022-12-09T05:50:37.756Z,19.05
2022-12-09T05:53:04.535Z,20.45
2022-12-09T05:55:31.440Z,19.92
2022-12-09T05:57:58.019Z,22.85
2022-12-09T06:00:25.130Z,18.73
2022-12-09T06:02:51.857Z,18.00
2022-12-09T06:05:18.582Z,19.65
2022-12-09T06:07:45.755Z,19.15
2022-12-09T06:10:12.873Z,20.95
2022-12-09T06:12:39.816Z,24.70
2022-12-09T06:15:09.763Z,19.73
2022-12-09T06:17:37.306Z,18.90
2022-12-09T06:20:04.201Z,21.67
2022-12-09T06:22:31.030Z,21.45
2022-12-09T06:24:57.525Z,22.10
2022-12-09T06:27:24.043Z,19.52
2022-12-09T06:29:50.698Z,23.08
2022-12-09T06:32:17.325Z,21.17
2022-12-09T06:34:44.066Z,24.20
2022-12-09T06:37:10.932Z,22.38
2022-12-09T06:39:37.535Z,21.70
2022-12-09T06:42:05.027Z,22.88
2022-12-09T06:44:31.988Z,25.67
2022-12-09T06:46:59.019Z,18.30
2022-12-09T06:49:25.702Z,20.77
2022-12-09T06:51:52.691Z,20.67
2022-12-09T06:54:19.343Z,23.95
2022-12-09T06:56:46.540Z,23.90
2022-12-09T06:59:13.161Z,19.48
2022-12-09T07:01:40.025Z,24.58
2022-12-09T07:04:07.470Z,21.20
2022-12-09T07:06:36.266Z,20.38
2022-12-09T07:09:05.502Z,22.20
2022-12-09T07:11:32.785Z,19.00
2022-12-09T07:13:59.761Z,23.00
2022-12-09T07:16:26.828Z,24.52
2022-12-09T07:18:53.663Z,21.98
2022-12-09T07:21:21.423Z,21.13
2022-12-09T07:23:48.095Z,19.80
2022-12-09T07:26:15.016Z,25.25
2022-12-09T07:28:47.372Z,22.23
2022-12-09T07:31:18.694Z,19.45
2022-12-09T07:33:46.065Z,21.08
2022-12-09T07:36:17.586Z,22.25
2022-12-09T07:38:47.590Z,20.92
2022-12-09T07:41:20.992Z,21.35
2022-12-09T07:43:48.166Z,18.75
2022-12-09T07:46:15.694Z,18.48
2022-12-09T07:48:42.521Z,18.38
2022-12-09T07:51:09.691Z,18.88
2022-12-09T07:53:36.649Z,18.25
2022-12-09T07:56:11.776Z,18.75
2022-12-09T07:58:38.446Z,18.33
2022-12-09T08:01:08.904Z,19.40
2022-12-09T08:03:35.992Z,21.15
2022-12-09T08:06:03.768Z,20.80
2022-12-09T08:08:31.211Z,23.17
2022-12-09T08:11:05.966Z,19.52
2022-12-09T08:13:32.891Z,17.50
2022-12-09T08:16:03.940Z,21.63
2022-12-09T08:18:31.058Z,19.75
2022-12-09T08:20:57.618Z,21.17
2022-12-09T08:23:24.867Z,18.65
2022-12-09T08:25:55.123Z,23.30
2022-12-09T08:28:21.931Z,17.88
2022-12-09T08:30:48.814Z,22.52
2022-12-09T08:33:15.944Z,18.95
2022-12-09T08:35:43.368Z,22.75
2022-12-09T08:38:10.329Z,20.95
2022-12-09T08:40:39.684Z,22.35
2022-12-09T08:43:08.384Z,22.05
2022-12-09T08:45:39.231Z,20.27
2022-12-09T08:48:06.418Z,20.52
2022-12-09T08:50:33.744Z,19.92
2022-12-09T08:53:00.362Z,25.88
2022-12-09T08:55:27.196Z,27.13
2022-12-09T08:57:53.980Z,30.13
2022-12-09T09:00:20.541Z,25.38
2022-12-09T09:02:47.590Z,26.60
2022-12-09T09:05:14.571Z,24.38
2022-12-09T09:07:41.761Z,24.58
2022-12-09T09:10:09.109Z,26.25
2022-12-09T09:12:42.151Z,34.13
2022-12-09T09:15:10.564Z,28.38
2022-12-09T09:17:37.640Z,26.02
2022-12-09T09:20:04.885Z,28.38
2022-12-09T09:22:31.845Z,32.78
2022-12-09T09:24:58.849Z,29.40
2022-12-09T09:27:25.609Z,34.38
2022-12-09T09:29:52.358Z,34.85
2022-12-09T09:32:18.845Z,31.38
2022-12-09T09:34:45.915Z,27.45
2022-12-09T09:37:12.708Z,31.73
2022-12-09T09:39:40.620Z,34.55
2022-12-09T09:42:13.434Z,32.30
2022-12-09T09:44:43.423Z,28.42
2022-12-09T09:47:25.965Z,31.50
2022-12-09T09:49:59.004Z,33.25
2022-12-09T09:52:27.507Z,32.72
2022-12-09T09:54:54.849Z,32.90
2022-12-09T09:57:28.332Z,31.40
2022-12-09T10:00:00.889Z,36.10
2022-12-09T10:02:45.089Z,34.78
2022-12-09T10:05:22.913Z,32.72
2022-12-09T10:07:53.645Z,35.88
2022-12-09T10:10:20.814Z,36.63
2022-12-09T10:13:12.293Z,34.38
2022-12-09T10:16:00.935Z,33.63
2022-12-09T10:18:37.069Z,33.13
2022-12-09T10:21:14.329Z,34.15
2022-12-09T10:23:41.110Z,33.92
2022-12-09T10:26:11.192Z,31.90
2022-12-09T10:28:43.738Z,33.38
2022-12-09T10:31:11.048Z,34.00
2022-12-09T10:33:39.109Z,32.55
2022-12-09T10:36:07.763Z,33.35
2022-12-09T10:38:37.686Z,27.88
2022-12-09T10:41:12.629Z,31.55
2022-12-09T10:43:41.045Z,29.08
2022-12-09T10:46:18.769Z,29.10
2022-12-09T10:48:46.408Z,28.83
2022-12-09T10:51:20.601Z,32.40
2022-12-09T10:53:50.242Z,30.15
2022-12-09T10:56:22.711Z,26.60
2022-12-09T10:58:49.482Z,30.13
2022-12-09T11:01:16.203Z,29.85
2022-12-09T11:03:49.082Z,29.75
2022-12-09T11:06:22.389Z,28.73
2022-12-09T11:08:51.357Z,26.75
2022-12-09T11:11:18.191Z,31.50
2022-12-09T11:13:44.947Z,25.40
2022-12-09T11:16:11.900Z,30.42
2022-12-09T11:18:44.284Z,29.33
2022-12-09T11:21:29.833Z,30.35
2022-12-09T11:24:02.871Z,30.27
2022-12-09T11:26:35.200Z,29.50
2022-12-09T11:29:04.586Z,25.23
2022-12-09T11:31:34.209Z,27.08
2022-12-09T11:34:03.771Z,28.42
2022-12-09T11:36:44.021Z,26.33
2022-12-09T11:39:23.221Z,23.40
2022-12-09T11:42:19.949Z,27.10
2022-12-09T11:44:56.534Z,25.50
2022-12-09T11:47:27.890Z,27.08
2022-12-09T11:50:03.242Z,25.48
2022-12-09T11:52:30.444Z,25.50
2022-12-09T11:55:02.941Z,25.45
2022-12-09T11:57:37.574Z,25.20
2022-12-09T12:00:16.301Z,24.15
2022-12-09T12:02:52.905Z,26.42
2022-12-09T12:05:21.650Z,26.05
2022-12-09T12:08:00.629Z,25.55
2022-12-09T12:10:30.034Z,26.42
2022-12-09T12:13:01.234Z,22.40
2022-12-09T12:15:39.824Z,23.10
2022-12-09T12:18:10.102Z,23.50
2022-12-09T12:20:55.472Z,22.40
2022-12-09T12:23:51.334Z,23.40
2022-12-09T12:26:20.749Z,25.48
2022-12-09T12:29:07.669Z,25.98
2022-12-09T12:31:52.760Z,23.42
2022-12-09T12:34:39.813Z,24.25
2022-12-09T12:37:09.127Z,22.00
2022-12-09T12:39:35.548Z,20.52
2022-12-09T12:42:01.941Z,19.27
2022-12-09T12:44:56.399Z,19.40
2022-12-09T12:47:25.933Z,23.30
2022-12-09T12:50:02.629Z,20.75
2022-12-09T12:52:56.175Z,21.73
2022-12-09T12:55:40.189Z,19.25
2022-12-09T12:58:25.357Z,21.10
2022-12-09T13:01:07.407Z,18.30
2022-12-09T13:03:38.547Z,24.33
2022-12-09T13:06:05.580Z,23.30
2022-12-09T13:08:37.914Z,19.73
2022-12-09T13:11:19.549Z,20.65
2022-12-09T13:13:48.262Z,20.25
2022-12-09T13:16:35.202Z,20.77
2022-12-09T13:19:06.986Z,23.02
2022-12-09T13:21:33.685Z,21.33
2022-12-09T13:24:21.843Z,19.90
2022-12-09T13:26:57.292Z,20.38
2022-12-09T13:29:30.224Z,21.67
2022-12-09T13:32:01.577Z,17.58
2022-12-09T13:34:46.519Z,19.73
2022-12-09T13:37:31.253Z,20.85
2022-12-09T13:39:58.627Z,21.38
2022-12-09T13:42:46.990Z,20.08
2022-12-09T13:45:20.058Z,22.67
2022-12-09T13:47:47.420Z,21.90
2022-12-09T13:50:26.363Z,21.15
2022-12-09T13:52:55.119Z,20.80
2022-12-09T13:55:48.459Z,20.08
2022-12-09T13:58:29.523Z,22.25
2022-12-09T14:01:06.621Z,24.25
2022-12-09T14:03:35.077Z,20.05
2022-12-09T14:06:03.860Z,19.23
2022-12-09T14:08:33.363Z,19.38
2022-12-09T14:11:19.699Z,21.65
2022-12-09T14:13:46.054Z,23.42
2022-12-09T14:16:27.689Z,25.27
2022-12-09T14:18:55.583Z,23.02
2022-12-09T14:21:24.269Z,26.58
2022-12-09T14:24:09.234Z,19.67
2022-12-09T14:26:39.916Z,24.02
2022-12-09T14:29:06.434Z,22.75
2022-12-09T14:31:45.213Z,20.90
2022-12-09T14:34:24.085Z,23.38
2022-12-09T14:36:54.764Z,24.58
2022-12-09T14:39:25.572Z,19.35
2022-12-09T14:41:58.809Z,21.63
2022-12-09T14:44:43.343Z,21.33
2022-12-09T14:49:48.528Z,18.75
2022-12-09T14:52:21.499Z,22.65
2022-12-09T14:54:48.203Z,21.50
2022-12-09T14:57:22.210Z,21.30
2022-12-09T14:59:50.362Z,21.35
2022-12-09T15:02:19.510Z,22.15
2022-12-09T15:04:47.413Z,18.95
2022-12-09T15:07:23.334Z,20.70
2022-12-09T15:09:51.244Z,21.92
2022-12-09T15:12:17.831Z,20.70
2022-12-09T15:14:44.481Z,25.00
2022-12-09T15:17:31.664Z,21.67
2022-12-09T15:20:00.851Z,21.38
2022-12-09T15:22:30.284Z,25.15
2022-12-09T15:24:56.761Z,19.85
2022-12-09T15:27:24.200Z,21.95
2022-12-09T15:29:50.850Z,19.88
2022-12-09T15:32:21.937Z,22.85
2022-12-09T15:34:48.378Z,22.20
2022-12-09T15:37:15.229Z,20.63
2022-12-09T15:39:53.814Z,22.42
2022-12-09T15:42:25.929Z,23.60
2022-12-09T15:44:58.313Z,23.00
2022-12-09T15:47:45.019Z,20.08
2022-12-09T15:50:14.894Z,20.60
2022-12-09T15:52:43.922Z,23.10
2022-12-09T15:55:12.041Z,26.13
2022-12-09T15:57:39.358Z,23.40
2022-12-09T16:00:06.285Z,22.92
2022-12-09T16:02:34.685Z,22.38
2022-12-09T16:05:03.120Z,22.73
2022-12-09T16:07:32.762Z,24.45
2022-12-09T16:10:19.628Z,23.20
2022-12-09T16:12:46.034Z,23.00
2022-12-09T16:15:13.631Z,24.17
2022-12-09T16:17:53.174Z,22.25
2022-12-09T16:20:42.588Z,22.67
2022-12-09T16:23:21.478Z,24.05
2022-12-09T16:25:49.243Z,22.08
2022-12-09T16:28:23.076Z,24.58
2022-12-09T16:30:50.863Z,26.60
2022-12-09T16:33:21.076Z,24.08
2022-12-09T16:35:58.637Z,22.55
2022-12-09T16:38:25.083Z,24.20
2022-12-09T16:40:54.565Z,24.38
2022-12-09T16:43:22.177Z,21.83
2022-12-09T16:45:48.556Z,23.65
2022-12-09T16:48:17.013Z,23.17
2022-12-09T16:50:46.598Z,24.40
2022-12-09T16:53:20.985Z,23.17
2022-12-09T16:55:51.311Z,22.17
2022-12-09T16:58:17.747Z,22.83
2022-12-09T17:00:44.285Z,23.20
2022-12-09T17:03:22.086Z,22.35
2022-12-09T17:05:48.838Z,24.17
2022-12-09T17:08:15.305Z,24.23
2022-12-09T17:10:42.244Z,28.55
2022-12-09T17:13:08.852Z,24.08
2022-12-09T17:15:35.248Z,23.90
2022-12-09T17:18:03.975Z,28.08
2022-12-09T17:20:30.336Z,23.75
2022-12-09T17:22:56.738Z,26.73
2022-12-09T17:25:23.095Z,23.55
2022-12-09T17:27:49.568Z,25.23
2022-12-09T17:30:15.966Z,27.98
2022-12-09T17:32:42.537Z,26.48
2022-12-09T17:35:12.579Z,23.70
2022-12-09T17:37:39.413Z,24.63
2022-12-09T17:40:05.936Z,23.50
2022-12-09T17:42:33.054Z,24.13
2022-12-09T17:44:59.484Z,27.23
2022-12-09T17:47:27.074Z,25.48
2022-12-09T17:49:53.479Z,30.52
2022-12-09T17:52:19.934Z,29.30
2022-12-09T17:54:47.000Z,29.60
2022-12-09T17:57:13.442Z,31.85
2022-12-09T17:59:39.989Z,29.23
2022-12-09T18:02:06.984Z,33.55
2022-12-09T18:04:33.428Z,31.60
2022-12-09T18:06:59.907Z,30.08
2022-12-09T18:09:26.339Z,28.08
2022-12-09T18:11:52.772Z,29.38
2022-12-09T18:14:19.191Z,27.77
2022-12-09T18:16:49.191Z,30.20
2022-12-09T18:19:16.882Z,29.17
2022-12-09T18:21:43.919Z,27.75
2022-12-09T18:24:10.377Z,32.80
2022-12-09T18:26:41.397Z,28.13
2022-12-09T18:29:08.825Z,24.85
2022-12-09T18:31:35.357Z,27.38
2022-12-09T18:34:01.714Z,28.75
2022-12-09T18:36:29.122Z,28.67
2022-12-09T18:38:57.840Z,29.27
2022-12-09T18:41:25.630Z,29.08
2022-12-09T18:43:52.772Z,23.98
2022-12-09T18:46:26.601Z,23.63
2022-12-09T18:48:57.506Z,26.80
2022-12-09T18:51:23.867Z,30.88
2022-12-09T18:53:50.221Z,25.23
2022-12-09T18:56:17.116Z,26.92
2022-12-09T18:59:05.270Z,28.90
2022-12-09T19:01:31.215Z,31.73
2022-12-09T19:03:58.690Z,27.85
2022-12-09T19:06:29.635Z,26.00
2022-12-09T19:08:57.384Z,22.48
2022-12-09T19:11:26.265Z,26.20
2022-12-09T19:13:53.057Z,25.10
2022-12-09T19:16:19.581Z,24.90
2022-12-09T19:18:46.079Z,21.92
2022-12-09T19:21:14.646Z,21.95
2022-12-09T19:23:41.789Z,25.80
2022-12-09T19:26:12.789Z,27.58
2022-12-09T19:28:39.361Z,24.38
2022-12-09T19:31:21.711Z,28.27
2022-12-09T19:33:48.202Z,20.88
2022-12-09T19:36:14.640Z,23.70
2022-12-09T19:38:41.360Z,21.17
2022-12-09T19:41:07.863Z,25.05
2022-12-09T19:43:34.394Z,25.20
2022-12-09T19:46:07.271Z,22.02
2022-12-09T19:48:34.569Z,28.13
2022-12-09T19:51:04.716Z,24.25
2022-12-09T19:53:31.367Z,20.02
2022-12-09T19:56:01.719Z,17.08
2022-12-09T19:58:29.307Z,19.60
2022-12-09T20:00:55.668Z,22.38
2022-12-09T20:03:22.108Z,19.10
2022-12-09T20:05:52.548Z,19.05
2022-12-09T20:08:19.175Z,23.30
2022-12-09T20:10:48.365Z,21.85
2022-12-09T20:13:15.293Z,20.65
2022-12-09T20:15:44.696Z,18.52
2022-12-09T20:18:11.151Z,22.45
2022-12-09T20:20:37.983Z,21.77
2022-12-09T20:23:04.501Z,21.25
2022-12-09T20:25:32.339Z,18.88
2022-12-09T20:27:58.708Z,20.73
2022-12-09T20:30:25.126Z,19.70
2022-12-09T20:32:51.557Z,18.33
2022-12-09T20:35:18.211Z,21.15
2022-12-09T20:37:44.575Z,19.58
2022-12-09T20:40:11.409Z,19.40
2022-12-09T20:42:37.831Z,18.58
2022-12-09T20:45:04.748Z,20.63
2022-12-09T20:47:31.202Z,19.88
2022-12-09T20:49:57.672Z,16.95
2022-12-09T20:52:24.682Z,21.60
2022-12-09T20:54:51.395Z,18.85
2022-12-09T20:57:17.758Z,19.63
2022-12-09T20:59:44.157Z,21.52
2022-12-09T21:02:14.017Z,19.67
2022-12-09T21:04:40.451Z,18.20
2022-12-09T21:07:06.875Z,20.77
2022-12-09T21:09:33.702Z,63.05
2022-12-09T21:12:00.469Z,37.55
2022-12-09T21:14:31.162Z,28.55
2022-12-09T21:16:59.369Z,22.15
2022-12-09T21:19:29.942Z,20.90
2022-12-09T21:21:56.400Z,17.52
2022-12-09T21:24:24.115Z,18.95
2022-12-09T21:26:53.212Z,17.25
2022-12-09T21:29:20.167Z,18.80
2022-12-09T21:31:50.375Z,21.00
2022-12-09T21:34:17.632Z,23.20
2022-12-09T21:36:44.290Z,20.92
2022-12-09T21:39:11.920Z,22.40
2022-12-09T21:41:38.454Z,21.63
2022-12-09T21:44:05.935Z,22.20
2022-12-09T21:46:33.548Z,24.27
2022-12-09T21:49:03.908Z,19.40
2022-12-09T21:51:31.463Z,22.58
2022-12-09T21:53:57.847Z,21.85
2022-12-09T21:56:24.995Z,21.13
2022-12-09T21:58:52.344Z,22.92
2022-12-09T22:01:20.305Z,22.90
2022-12-09T22:03:47.800Z,18.27
2022-12-09T22:06:14.746Z,20.90
2022-12-09T22:08:41.860Z,19.92
2022-12-09T22:11:18.710Z,21.63
2022-12-09T22:13:45.466Z,18.33
2022-12-09T22:16:17.085Z,21.42
2022-12-09T22:18:44.039Z,17.52
2022-12-09T22:21:27.977Z,18.30
2022-12-09T22:23:55.594Z,18.75
2022-12-09T22:26:22.852Z,19.45
2022-12-09T22:28:49.311Z,20.65
2022-12-09T22:31:17.879Z,18.95
2022-12-09T22:33:44.468Z,18.70
2022-12-09T22:36:11.871Z,19.63
2022-12-09T22:38:39.116Z,19.63
2022-12-09T22:41:07.171Z,20.20
2022-12-09T22:43:38.025Z,20.25
2022-12-09T22:46:09.266Z,20.83
2022-12-09T22:48:35.778Z,24.15
2022-12-09T22:51:06.743Z,19.17
2022-12-09T22:53:33.237Z,18.48
2022-12-09T22:56:00.246Z,21.13
2022-12-09T22:58:27.168Z,20.80
2022-12-09T23:00:54.111Z,18.85
2022-12-09T23:03:20.691Z,16.95
2022-12-09T23:05:47.287Z,19.00
2022-12-09T23:08:13.851Z,21.00
2022-12-09T23:10:40.420Z,19.95
2022-12-09T23:13:06.998Z,19.60
2022-12-09T23:15:34.110Z,18.50
2022-12-09T23:18:00.771Z,19.20
2022-12-09T23:20:27.154Z,20.17
2022-12-09T23:22:53.654Z,20.35
2022-12-09T23:25:20.055Z,18.20
2022-12-09T23:27:46.390Z,18.15
2022-12-09T23:30:12.892Z,18.05
2022-12-09T23:32:39.557Z,19.08
2022-12-09T23:35:07.726Z,19.40
2022-12-09T23:37:34.184Z,19.60
2022-12-09T23:40:00.555Z,18.98
2022-12-09T23:42:26.959Z,18.05
2022-12-09T23:44:53.403Z,20.25
2022-12-09T23:47:19.807Z,15.55
2022-12-09T23:49:46.153Z,18.75
2022-12-09T23:52:12.578Z,19.55
2022-12-09T23:54:39.014Z,20.40
2022-12-09T23:57:05.414Z,18.55
2022-12-09T23:59:31.817Z,18.83
